Terminal Aerodrome Forecast
Issued by NWS

Home | Current Version | Previous Version | Text Only | Print | Product List | Glossary On
Versions: 1 2 3 4 5 6 7 8 9 10 11 12 13 14 15 16 17 18 19 20 21 22 23 24 25 26 27 28 29 30 31 32 33 34 35 36 37 38
000
FTUS41 KRNK 020525
TAFBCB
TAF
KBCB 020525Z 0206/0306 03003KT P6SM OVC005
      TEMPO 0208/0212 4SM -DZ BR SCT002 OVC012
     FM021500 08003KT P6SM OVC015
     FM021700 VRB03KT P6SM SCT025 BKN050
     FM022200 08004KT P6SM VCSH BKN040
     FM030300 00000KT 5SM BR BKN015 OVC035=

USA.gov is the U.S. government's official web portal to all federal, state and local government web resources and services.